McChord Air Force Base
KTCM : now visible

Airfield :











YOU CAN JOIN US ON...

 
LOGIN :

Register | Disclaimer

   EN    FR    IT 

 









Legend :    VFR   Marginal VFR   IFR   Intensive IFR   Very Intensive IFR
Visi :
Ceiling :
>= 8 km
>= 3000ft
5 to 8 km
1000 to 3000 ft
1500m to 5 km
500 to 1000 ft
800 to 1500m
200 to 500 ft
< 800m
< 200 ft
Symbols :   Thunderstorms  Fog  Heavy snow  Heavy precipitations  Wind > 20 kt







- Airport Elevation : 322 ft


KTCM - McChord Air Force Base

CURRENT METAR :
  • 161858Z 22005KT 10SM OVC007 04/04 A2985 RMK AO2A DZB12E17RAB17E32 OVC V BKN CIG 006 RWY34 SLP114 P0000 $

EXPIRED METARs :
  • 161852Z 20005KT 10SM BKN007 OVC023 04/04 A2985 RMK AO2A DZB12E17RAB17E32 CIG 005V007 SLP114 $
  • 161842Z 20006KT 10SM BKN005 OVC022 04/04 A2984 RMK AO2A DZB12E17RAB17E32 SLP111 $
  • 161832Z 19004KT 10SM BKN004 OVC024 04/04 A2984 RMK AO2A DZB12E17RAB17E32 SLP111 $
  • 161812Z 18003KT 8SM -DZ BKN004 OVC009 03/03 A2984 RMK AO2A DZB12 CIG 004V007 BKN V SCT CIG 003 RWY34 SLP111 $
  • 161801Z 18003KT 5SM BR SCT004 OVC007 03/03 A2984 RMK AO2A CIG 006V008 OVC V BKN CIG 003 RWY34 SLP111 $
  • 161752Z 17003KT 3SM BR BKN006 OVC011 03/03 A2984 RMK AO2A CIG 004V006 CIG 003 RWY34 SLP111 $
  • 161737Z 17003KT 5SM BR SCT004 OVC011 03/03 A2984 RMK AO2A VIS 1 3/8 RWY34 CIG 007V011 CIG 003 RWY34 SLP111 $
  • 161701Z 19004KT 9SM FEW004 OVC009 02/ A2983 RMK AO2A CIG 003 RWY34 SLP108 $
  • 161650Z 18005KT 10SM OVC009 02/02 A2983 RMK AO2A RAE35 CIG 005V009 CIG 003 RWY34 SLP108 $
  • 161645Z 18005KT 10SM OVC007 03/03 A2983 RMK AO2A RAE35 CIG 005V007 CIG 003 RWY34 SLP108 $
  • 161558Z 17003KT 5SM -RA BR OVC005 02/02 A2981 RMK AO2A VIS 1 1/4 RWY34 RAE02DZB02E03RAB03E14RAB48 SLP101 P2400 $

TAF AMD TAF KTCM
Valid from the 16 at 18:00 until the 17 at 19:00 UTC


161843Z 1618/1719 VRB06KT 9999 VCSH BKN004 OVC025 610105 QNH2977INS
TEMPO 1618/1620 FEW004 OVC025 620253
BECMG 1619/1620 VRB06KT 9999 NSW FEW010 BKN020 610208 QNH2980INS
BECMG 1704/1705 VRB06KT 4800 BR BKN020 620208 QNH2984INS
BECMG 1712/1713 VRB06KT 9999 NSW BKN025 620405 QNH3003INS TX07/1623Z TN01/1711Z
KZSE FIR / North America



MET'MAP, your aeronautical weather chart ! - Copyright ORBIFLY December 2007 - Disclaimer

ORBIFLY MET'MAP TEAM :

Programming & Development : Alexandra Zaïnal
Concept & Development : Baudouin d'Aumeries
Co-Development & Prog : Marc-Olivier Méhu
Technical & hardware support : Manuel Goepfert

Contact : metmap@orbifly.com




SOURCES & CREDITS :

   NOAA       Earth
Advisory